createdAt,value
2023-03-16T00:01:27.119Z,100958.34
2023-03-16T00:03:55.093Z,100964.85
2023-03-16T00:06:25.515Z,100966.91
2023-03-16T00:08:58.805Z,100976.43
2023-03-16T00:11:26.826Z,100979.94
2023-03-16T00:13:54.749Z,100984.21
2023-03-16T00:16:22.730Z,100984.54
2023-03-16T00:18:50.773Z,100984.71
2023-03-16T00:21:18.813Z,100987.55
2023-03-16T00:23:46.858Z,100990.64
2023-03-16T00:26:15.054Z,100988.55
2023-03-16T00:28:43.002Z,100989.71
2023-03-16T00:31:12.322Z,100983.64
2023-03-16T00:33:42.892Z,100985.45
2023-03-16T00:36:11.745Z,100987.83
2023-03-16T00:38:45.253Z,100989.69
2023-03-16T00:41:15.806Z,100986.64
2023-03-16T00:43:45.354Z,100985.77
2023-03-16T00:46:16.888Z,100989.95
2023-03-16T00:48:47.115Z,100982.54
2023-03-16T00:51:17.781Z,100986.95
2023-03-16T00:53:47.091Z,100984.69
2023-03-16T00:56:17.197Z,100986.17
2023-03-16T00:58:45.406Z,100989.30
2023-03-16T01:01:17.298Z,100989.84
2023-03-16T01:03:46.132Z,100992.81
2023-03-16T01:06:17.370Z,100998.05
2023-03-16T01:08:45.554Z,101000.77
2023-03-16T01:11:19.385Z,100999.11
2023-03-16T01:13:49.824Z,101003.95
2023-03-16T01:16:23.351Z,101010.02
2023-03-16T01:18:52.619Z,101008.02
2023-03-16T01:21:21.923Z,101011.77
2023-03-16T01:23:53.753Z,101008.69
2023-03-16T01:26:23.079Z,101014.23
2023-03-16T01:28:51.118Z,101019.79
2023-03-16T01:31:19.038Z,101022.26
2023-03-16T01:33:47.021Z,101024.10
2023-03-16T01:36:20.375Z,101027.70
2023-03-16T01:38:55.437Z,101026.10
2023-03-16T01:41:28.248Z,101023.48
2023-03-16T01:43:58.282Z,101024.30
2023-03-16T01:46:29.985Z,101028.17
2023-03-16T01:49:08.173Z,101028.73
2023-03-16T01:52:08.787Z,101027.13
2023-03-16T01:54:54.388Z,101026.86
2023-03-16T01:57:36.093Z,101027.42
2023-03-16T02:00:20.694Z,101032.50
2023-03-16T02:03:10.474Z,101028.59
2023-03-16T02:06:03.101Z,101035.07
2023-03-16T02:08:33.318Z,101038.67
2023-03-16T02:11:01.412Z,101034.88
2023-03-16T02:13:43.603Z,101034.21
2023-03-16T02:16:14.589Z,101036.65
2023-03-16T02:18:42.666Z,101040.17
2023-03-16T02:21:41.526Z,101041.58
2023-03-16T02:24:09.735Z,101042.38
2023-03-16T02:27:04.520Z,101042.30
2023-03-16T02:30:09.441Z,101044.62
2023-03-16T02:32:47.082Z,101041.77
2023-03-16T02:35:15.758Z,101052.10
2023-03-16T02:37:44.082Z,101049.07
2023-03-16T02:40:23.017Z,101050.10
2023-03-16T02:43:19.485Z,101053.06
2023-03-16T02:45:59.751Z,101051.46
2023-03-16T02:48:42.670Z,101052.86
2023-03-16T02:51:13.359Z,101056.31
2023-03-16T02:53:41.332Z,101061.86
2023-03-16T02:56:09.252Z,101062.80
2023-03-16T02:58:38.485Z,101060.83
2023-03-16T03:01:10.884Z,101058.13
2023-03-16T03:03:40.548Z,101060.95
2023-03-16T03:06:08.489Z,101061.14
2023-03-16T03:08:37.940Z,101065.02
2023-03-16T03:11:06.463Z,101062.52
2023-03-16T03:13:38.082Z,101061.22
2023-03-16T03:16:06.771Z,101064.17
2023-03-16T03:18:34.924Z,101060.36
2023-03-16T03:21:05.451Z,101060.34
2023-03-16T03:23:35.541Z,101065.10
2023-03-16T03:26:04.249Z,101067.61
2023-03-16T03:28:37.670Z,101075.98
2023-03-16T03:31:07.402Z,101075.63
2023-03-16T03:33:35.960Z,101075.85
2023-03-16T03:36:04.462Z,101075.69
2023-03-16T03:38:36.063Z,101077.69
2023-03-16T03:41:07.006Z,101074.25
2023-03-16T03:43:38.061Z,101077.21
2023-03-16T03:46:06.313Z,101076.52
2023-03-16T03:48:35.099Z,101077.48
2023-03-16T03:51:06.220Z,101076.64
2023-03-16T03:53:34.318Z,101080.23
2023-03-16T03:56:11.023Z,101080.04
2023-03-16T03:58:38.961Z,101082.46
2023-03-16T04:01:07.048Z,101084.45
2023-03-16T04:03:36.874Z,101080.92
2023-03-16T04:06:08.134Z,101083.08
2023-03-16T04:08:36.053Z,101083.77
2023-03-16T04:11:06.098Z,101080.24
2023-03-16T04:13:34.059Z,101084.88
2023-03-16T04:16:04.842Z,101083.54
2023-03-16T04:18:40.220Z,101088.46
2023-03-16T04:21:17.542Z,101086.52
2023-03-16T04:23:49.034Z,101086.97
2023-03-16T04:26:17.891Z,101090.09
2023-03-16T04:28:46.226Z,101093.27
2023-03-16T04:31:19.148Z,101094.26
2023-03-16T04:33:47.320Z,101097.55
2023-03-16T04:36:15.507Z,101098.63
2023-03-16T04:38:46.633Z,101100.25
2023-03-16T04:41:20.646Z,101083.18
2023-03-16T04:43:57.661Z,101105.98
2023-03-16T04:46:27.043Z,101104.60
2023-03-16T04:48:58.410Z,101106.25
2023-03-16T04:51:29.278Z,101110.17
2023-03-16T04:54:07.562Z,101110.64
2023-03-16T04:56:36.937Z,101109.54
2023-03-16T04:59:08.757Z,101112.39
2023-03-16T05:01:44.633Z,101111.77
2023-03-16T05:04:19.196Z,101111.41
2023-03-16T05:06:49.596Z,101110.17
2023-03-16T05:09:20.617Z,101114.65
2023-03-16T05:11:51.769Z,101098.77
2023-03-16T05:14:22.689Z,101114.66
2023-03-16T05:17:14.734Z,101117.14
2023-03-16T05:19:46.674Z,101118.02
2023-03-16T05:22:19.623Z,101113.38
2023-03-16T05:25:09.108Z,101121.94
2023-03-16T05:27:47.805Z,101123.84
2023-03-16T05:30:21.378Z,101123.30
2023-03-16T05:32:50.617Z,101124.52
2023-03-16T05:35:18.694Z,101126.08
2023-03-16T05:37:46.881Z,101124.23
2023-03-16T05:40:20.384Z,101125.30
2023-03-16T05:43:03.814Z,101130.86
2023-03-16T05:45:32.091Z,101134.89
2023-03-16T05:48:10.794Z,101135.25
2023-03-16T05:50:48.230Z,101128.41
2023-03-16T05:53:19.628Z,101135.23
2023-03-16T05:55:53.068Z,101135.17
2023-03-16T05:58:22.064Z,101136.63
2023-03-16T06:00:50.673Z,101132.75
2023-03-16T06:03:23.630Z,101140.21
2023-03-16T06:05:57.371Z,101145.28
2023-03-16T06:08:30.849Z,101143.25
2023-03-16T06:11:05.735Z,101141.32
2023-03-16T06:13:33.728Z,101148.43
2023-03-16T06:16:03.093Z,101148.48
2023-03-16T06:18:32.199Z,101149.76
2023-03-16T06:21:01.022Z,101148.44
2023-03-16T06:23:30.217Z,101148.02
2023-03-16T06:26:01.011Z,101144.44
2023-03-16T06:28:31.644Z,101147.53
2023-03-16T06:30:59.627Z,101150.55
2023-03-16T06:33:33.405Z,101150.64
2023-03-16T06:36:01.810Z,101151.96
2023-03-16T06:38:49.810Z,101151.25
2023-03-16T06:41:27.193Z,101152.59
2023-03-16T06:43:55.625Z,101150.56
2023-03-16T06:46:23.713Z,101154.50
2023-03-16T06:48:52.143Z,101154.80
2023-03-16T06:51:20.545Z,101153.67
2023-03-16T06:53:48.668Z,101153.88
2023-03-16T06:56:16.711Z,101150.50
2023-03-16T06:58:45.769Z,101162.22
2023-03-16T07:01:13.715Z,101161.36
2023-03-16T07:03:41.874Z,101166.77
2023-03-16T07:06:18.520Z,101170.37
2023-03-16T07:08:50.674Z,101174.52
2023-03-16T07:11:20.509Z,101174.69
2023-03-16T07:13:51.773Z,101173.60
2023-03-16T07:16:28.078Z,101176.39
2023-03-16T07:18:59.388Z,101175.77
2023-03-16T07:21:28.754Z,101182.45
2023-03-16T07:24:00.104Z,101183.25
2023-03-16T07:26:36.485Z,101184.20
2023-03-16T07:29:08.620Z,101188.36
2023-03-16T07:31:38.433Z,101190.43
2023-03-16T07:34:12.906Z,101198.86
2023-03-16T07:36:54.294Z,101194.71
2023-03-16T07:39:24.235Z,101204.15
2023-03-16T07:41:56.106Z,101199.90
2023-03-16T07:44:39.485Z,101206.38
2023-03-16T07:47:13.395Z,101203.09
2023-03-16T07:49:44.126Z,101206.66
2023-03-16T07:52:15.693Z,101208.08
2023-03-16T07:54:45.361Z,101209.60
2023-03-16T07:57:14.651Z,101211.73
2023-03-16T07:59:47.694Z,101212.52
2023-03-16T08:02:20.031Z,101214.52
2023-03-16T08:04:51.557Z,101213.42
2023-03-16T08:07:20.424Z,101218.65
2023-03-16T08:09:55.415Z,101221.84
2023-03-16T08:12:30.562Z,101223.71
2023-03-16T08:15:02.908Z,101228.29
2023-03-16T08:17:34.246Z,101227.33
2023-03-16T08:20:08.984Z,101233.22
2023-03-16T08:22:46.237Z,101234.64
2023-03-16T08:25:19.806Z,101232.66
2023-03-16T08:27:58.496Z,101242.08
2023-03-16T08:30:27.507Z,101240.88
2023-03-16T08:33:12.767Z,101239.30
2023-03-16T08:35:48.262Z,101246.34
2023-03-16T08:38:19.384Z,101246.49
2023-03-16T08:40:50.666Z,101245.14
2023-03-16T08:43:31.354Z,101244.80
2023-03-16T08:46:07.012Z,101250.85
2023-03-16T08:48:48.872Z,101250.46
2023-03-16T08:51:19.547Z,101256.72
2023-03-16T08:53:48.083Z,101263.95
2023-03-16T08:56:16.376Z,101264.71
2023-03-16T08:58:50.540Z,101263.85
2023-03-16T09:01:21.725Z,101267.29
2023-03-16T09:03:55.142Z,101272.27
2023-03-16T09:06:27.674Z,101267.09
2023-03-16T09:08:59.614Z,101272.48
2023-03-16T09:11:30.613Z,101273.80
2023-03-16T09:14:06.923Z,101279.41
2023-03-16T09:16:36.388Z,101285.13
2023-03-16T09:19:05.793Z,101283.43
2023-03-16T09:21:36.220Z,101280.92
2023-03-16T09:24:07.626Z,101283.70
2023-03-16T09:26:37.526Z,101281.13
2023-03-16T09:29:08.975Z,101285.23
2023-03-16T09:31:38.356Z,101280.55
2023-03-16T09:34:07.155Z,101285.90
2023-03-16T09:36:36.301Z,101291.42
2023-03-16T09:39:04.764Z,101298.06
2023-03-16T09:41:59.303Z,101290.91
2023-03-16T09:45:23.135Z,101292.57
2023-03-16T09:47:58.752Z,101291.63
2023-03-16T09:50:47.330Z,101297.73
2023-03-16T09:53:29.251Z,101288.80
2023-03-16T09:56:06.570Z,101299.01
2023-03-16T09:58:36.506Z,101296.69
2023-03-16T10:01:32.229Z,101291.77
2023-03-16T10:04:31.468Z,101294.88
2023-03-16T10:07:30.486Z,101290.39
2023-03-16T10:10:44.447Z,101299.70
2023-03-16T10:13:32.066Z,101294.46
2023-03-16T10:16:09.545Z,101298.38
2023-03-16T10:18:48.538Z,101301.92
2023-03-16T10:21:20.016Z,101303.54
2023-03-16T10:23:53.436Z,101309.77
2023-03-16T10:26:34.076Z,101305.33
2023-03-16T10:29:12.839Z,101299.98
2023-03-16T10:31:44.606Z,101294.27
2023-03-16T10:34:13.714Z,101298.26
2023-03-16T10:36:45.438Z,101301.30
2023-03-16T10:39:17.799Z,101308.36
2023-03-16T10:41:57.815Z,101310.48
2023-03-16T10:44:30.614Z,101302.69
2023-03-16T10:47:04.890Z,101308.39
2023-03-16T10:49:48.820Z,101307.27
2023-03-16T10:52:23.432Z,101307.70
2023-03-16T10:55:02.330Z,101308.15
2023-03-16T10:57:37.324Z,101304.33
2023-03-16T11:00:20.675Z,101306.80
2023-03-16T11:02:54.245Z,101303.75
2023-03-16T11:05:31.101Z,101306.14
2023-03-16T11:08:25.891Z,101307.95
2023-03-16T11:10:58.847Z,101305.13
2023-03-16T11:13:37.554Z,101299.87
2023-03-16T11:16:26.607Z,101301.39
2023-03-16T11:19:26.094Z,101290.58
2023-03-16T11:22:23.338Z,101292.70
2023-03-16T11:25:07.226Z,101294.08
2023-03-16T11:28:16.999Z,101292.23
2023-03-16T11:31:17.070Z,101290.44
2023-03-16T11:34:04.421Z,101296.65
2023-03-16T11:36:49.557Z,101292.69
2023-03-16T11:39:37.586Z,101295.31
2023-03-16T11:42:39.495Z,101300.15
2023-03-16T11:45:22.852Z,101300.19
2023-03-16T11:48:48.199Z,101298.80
2023-03-16T11:51:48.462Z,101297.55
2023-03-16T11:54:37.183Z,101295.02
2023-03-16T11:57:32.807Z,101290.82
2023-03-16T12:00:35.747Z,101290.51
2023-03-16T12:03:17.425Z,101298.09
2023-03-16T12:05:57.015Z,101309.58
2023-03-16T12:08:58.807Z,101307.14
2023-03-16T12:11:33.027Z,101297.72
2023-03-16T12:14:28.722Z,101296.80
2023-03-16T12:17:04.603Z,101299.88
2023-03-16T12:19:54.378Z,101297.35
2023-03-16T12:22:58.584Z,101287.33
2023-03-16T12:25:38.051Z,101279.70
2023-03-16T12:28:23.837Z,101279.95
2023-03-16T12:31:14.165Z,101278.02
2023-03-16T12:34:36.809Z,101276.76
2023-03-16T12:37:35.986Z,101290.77
2023-03-16T12:40:33.715Z,101285.09
2023-03-16T12:43:35.592Z,101271.66
2023-03-16T12:46:14.165Z,101277.72
2023-03-16T12:49:00.282Z,101281.76
2023-03-16T12:51:41.415Z,101285.69
2023-03-16T12:54:25.345Z,101278.72
2023-03-16T12:57:05.554Z,101277.91
2023-03-16T12:59:50.618Z,101274.21
2023-03-16T13:02:29.773Z,101281.08
2023-03-16T13:05:10.591Z,101275.80
2023-03-16T13:07:48.903Z,101273.89
2023-03-16T13:10:21.053Z,101282.88
2023-03-16T13:12:52.682Z,101279.45
2023-03-16T13:15:29.967Z,101279.71
2023-03-16T13:18:22.875Z,101267.89
2023-03-16T13:20:58.451Z,101280.86
2023-03-16T13:23:49.201Z,101288.08
2023-03-16T13:26:32.268Z,101293.05
2023-03-16T13:29:18.543Z,101290.45
2023-03-16T13:31:48.406Z,101297.53
2023-03-16T13:34:30.589Z,101301.66
2023-03-16T13:37:04.134Z,101298.97
2023-03-16T13:40:02.027Z,101292.54
2023-03-16T13:42:33.375Z,101291.14
2023-03-16T13:45:32.896Z,101297.71
2023-03-16T13:48:05.538Z,101293.69
2023-03-16T13:50:54.801Z,101293.77
2023-03-16T13:53:31.597Z,101293.40
2023-03-16T13:56:02.652Z,101288.73
2023-03-16T13:58:37.843Z,101296.84
2023-03-16T14:01:32.231Z,101292.85
2023-03-16T14:04:08.873Z,101284.25
2023-03-16T14:06:37.726Z,101286.84
2023-03-16T14:09:14.043Z,101284.01
2023-03-16T14:11:44.512Z,101289.25
2023-03-16T14:14:25.184Z,101289.11
2023-03-16T14:16:54.730Z,101286.08
2023-03-16T14:19:32.237Z,101287.75
2023-03-16T14:22:06.959Z,101283.22
2023-03-16T14:24:39.284Z,101279.17
2023-03-16T14:27:29.468Z,101282.52
2023-03-16T14:30:18.246Z,101283.00
2023-03-16T14:33:24.764Z,101288.46
2023-03-16T14:35:59.411Z,101284.64
2023-03-16T14:38:32.872Z,101281.60
2023-03-16T14:41:17.073Z,101281.14
2023-03-16T14:43:49.477Z,101271.22
2023-03-16T14:46:31.279Z,101272.77
2023-03-16T14:49:30.472Z,101273.31
2023-03-16T14:52:27.529Z,101266.63
2023-03-16T14:54:55.543Z,101272.86
2023-03-16T14:57:25.963Z,101270.60
2023-03-16T14:59:54.823Z,101273.88
2023-03-16T15:02:29.879Z,101266.56
2023-03-16T15:05:01.122Z,101266.92
2023-03-16T15:07:37.892Z,101268.85
2023-03-16T15:10:15.281Z,101265.05
2023-03-16T15:12:50.556Z,101266.15
2023-03-16T15:15:27.388Z,101263.73
2023-03-16T15:17:55.274Z,101264.05
2023-03-16T15:20:31.724Z,101266.71
2023-03-16T15:23:01.714Z,101270.27
2023-03-16T15:25:38.529Z,101266.52
2023-03-16T15:28:21.382Z,101268.24
2023-03-16T15:30:53.536Z,101269.49
2023-03-16T15:33:22.201Z,101272.00
2023-03-16T15:35:52.262Z,101272.19
2023-03-16T15:38:36.112Z,101269.27
2023-03-16T15:41:04.266Z,101269.98
2023-03-16T15:43:32.259Z,101271.47
2023-03-16T15:46:00.193Z,101268.05
2023-03-16T15:48:28.097Z,101271.33
2023-03-16T15:51:08.967Z,101271.34
2023-03-16T15:53:43.451Z,101269.11
2023-03-16T15:56:18.447Z,101272.38
2023-03-16T15:58:47.035Z,101275.27
2023-03-16T16:01:27.107Z,101282.26
2023-03-16T16:03:56.049Z,101277.23
2023-03-16T16:06:24.268Z,101277.19
2023-03-16T16:08:52.288Z,101277.98
2023-03-16T16:11:28.265Z,101277.46
2023-03-16T16:13:58.117Z,101282.84
2023-03-16T16:16:29.172Z,101285.70
2023-03-16T16:18:58.108Z,101289.79
2023-03-16T16:21:30.839Z,101291.84
2023-03-16T16:23:59.104Z,101292.23
2023-03-16T16:26:48.913Z,101289.38
2023-03-16T16:29:22.718Z,101291.05
2023-03-16T16:31:52.067Z,101293.24
2023-03-16T16:34:25.070Z,101290.97
2023-03-16T16:36:56.038Z,101292.27
2023-03-16T16:39:24.546Z,101291.05
2023-03-16T16:41:55.273Z,101299.02
2023-03-16T16:44:33.838Z,101298.65
2023-03-16T16:47:03.501Z,101299.07
2023-03-16T16:49:35.053Z,101300.94
2023-03-16T16:52:04.271Z,101303.02
2023-03-16T16:54:32.285Z,101302.28
2023-03-16T16:57:01.527Z,101306.17
2023-03-16T16:59:37.567Z,101310.03
2023-03-16T17:02:40.442Z,101310.30
2023-03-16T17:05:45.643Z,101315.91
2023-03-16T17:08:19.072Z,101315.73
2023-03-16T17:10:47.841Z,101318.12
2023-03-16T17:13:33.326Z,101317.11
2023-03-16T17:16:01.416Z,101319.92
2023-03-16T17:18:29.922Z,101324.16
2023-03-16T17:20:57.884Z,101327.80
2023-03-16T17:23:34.908Z,101321.21
2023-03-16T17:26:20.989Z,101332.48
2023-03-16T17:29:03.119Z,101333.45
2023-03-16T17:31:38.915Z,101335.39
2023-03-16T17:34:17.336Z,101331.38
2023-03-16T17:36:46.873Z,101336.86
2023-03-16T17:39:27.246Z,101333.61
2023-03-16T17:42:12.134Z,101336.48
2023-03-16T17:44:47.329Z,101335.59
2023-03-16T17:47:25.252Z,101330.71
2023-03-16T17:49:54.226Z,101328.80
2023-03-16T17:52:25.815Z,101327.06
2023-03-16T17:55:00.368Z,101329.75
2023-03-16T17:57:32.574Z,101334.67
2023-03-16T18:00:02.739Z,101337.63
2023-03-16T18:02:58.696Z,101337.05
2023-03-16T18:05:33.386Z,101338.50
2023-03-16T18:08:16.218Z,101340.09
2023-03-16T18:10:46.021Z,101340.45
2023-03-16T18:13:28.001Z,101339.59
2023-03-16T18:15:57.194Z,101344.59
2023-03-16T18:18:32.819Z,101346.39
2023-03-16T18:21:01.893Z,101347.25
2023-03-16T18:23:34.569Z,101344.45
2023-03-16T18:26:03.421Z,101343.95
2023-03-16T18:28:33.977Z,101340.81
2023-03-16T18:31:05.241Z,101339.04
2023-03-16T18:33:43.815Z,101341.63
2023-03-16T18:36:22.052Z,101329.30
2023-03-16T18:38:52.695Z,101339.70
2023-03-16T18:41:31.720Z,101344.21
2023-03-16T18:44:06.029Z,101339.08
2023-03-16T18:46:37.279Z,101348.16
2023-03-16T18:49:22.804Z,101353.27
2023-03-16T18:51:54.525Z,101349.67
2023-03-16T18:54:32.693Z,101352.02
2023-03-16T18:57:04.250Z,101353.90
2023-03-16T18:59:32.613Z,101357.77
2023-03-16T19:02:00.911Z,101355.63
2023-03-16T19:04:32.858Z,101359.39
2023-03-16T19:07:21.275Z,101360.99
2023-03-16T19:09:49.318Z,101361.51
2023-03-16T19:12:18.728Z,101366.77
2023-03-16T19:14:47.516Z,101372.84
2023-03-16T19:17:16.335Z,101368.52
2023-03-16T19:19:44.173Z,101369.09
2023-03-16T19:22:21.248Z,101376.84
2023-03-16T19:24:54.113Z,101376.89
2023-03-16T19:27:26.993Z,101380.56
2023-03-16T19:29:55.376Z,101377.59
2023-03-16T19:32:23.405Z,101375.92
2023-03-16T19:34:52.011Z,101379.16
2023-03-16T19:37:20.733Z,101383.14
2023-03-16T19:39:48.954Z,101385.23
2023-03-16T19:42:30.209Z,101383.54
2023-03-16T19:44:58.202Z,101386.36
2023-03-16T19:47:36.643Z,101388.73
2023-03-16T19:50:18.043Z,101379.61
2023-03-16T19:52:46.965Z,101377.28
2023-03-16T19:55:19.768Z,101379.17
2023-03-16T19:57:52.819Z,101375.86
2023-03-16T20:00:26.569Z,101371.79
2023-03-16T20:02:55.992Z,101375.52
2023-03-16T20:05:30.209Z,101371.05
2023-03-16T20:08:00.873Z,101378.68
2023-03-16T20:10:32.465Z,101379.38
2023-03-16T20:13:01.667Z,101379.83
2023-03-16T20:15:33.498Z,101370.80
2023-03-16T20:18:02.241Z,101360.92
2023-03-16T20:20:37.496Z,101360.32
2023-03-16T20:23:23.092Z,101357.38
2023-03-16T20:25:54.693Z,101351.33
2023-03-16T20:28:30.310Z,101350.25
2023-03-16T20:31:00.620Z,101343.98
2023-03-16T20:33:34.340Z,101334.49
2023-03-16T20:36:02.466Z,101338.88
2023-03-16T20:38:30.902Z,101338.02
2023-03-16T20:40:59.043Z,101342.05
2023-03-16T20:43:32.714Z,101341.64
2023-03-16T20:46:03.848Z,101341.30
2023-03-16T20:48:34.302Z,101345.64
2023-03-16T20:51:02.673Z,101346.98
2023-03-16T20:53:30.627Z,101343.38
2023-03-16T20:55:58.603Z,101337.14
2023-03-16T20:58:32.527Z,101332.75
2023-03-16T21:01:02.041Z,101334.05
2023-03-16T21:03:33.327Z,101325.80
2023-03-16T21:06:01.422Z,101323.31
2023-03-16T21:08:29.620Z,101314.56
2023-03-16T21:10:59.731Z,101322.86
2023-03-16T21:13:33.704Z,101326.98
2023-03-16T21:16:03.448Z,101326.03
2023-03-16T21:18:31.507Z,101327.41
2023-03-16T21:20:59.487Z,101333.14
2023-03-16T21:23:27.441Z,101337.64
2023-03-16T21:26:00.549Z,101332.41
2023-03-16T21:28:32.391Z,101331.27
2023-03-16T21:31:02.671Z,101334.14
2023-03-16T21:33:41.693Z,101341.31
2023-03-16T21:36:20.611Z,101338.61
2023-03-16T21:38:51.471Z,101333.94
2023-03-16T21:41:20.124Z,101328.75
2023-03-16T21:43:49.971Z,101323.52
2023-03-16T21:46:22.360Z,101326.38
2023-03-16T21:48:54.664Z,101331.77
2023-03-16T21:51:30.091Z,101331.39
2023-03-16T21:53:58.851Z,101336.44
2023-03-16T21:56:30.186Z,101334.48
2023-03-16T21:58:59.692Z,101334.94
2023-03-16T22:01:31.570Z,101332.48
2023-03-16T22:04:15.911Z,101339.55
2023-03-16T22:06:47.916Z,101345.81
2023-03-16T22:09:22.444Z,101347.54
2023-03-16T22:11:50.784Z,101345.44
2023-03-16T22:14:18.665Z,101354.39
2023-03-16T22:16:47.893Z,101353.21
2023-03-16T22:19:18.133Z,101356.23
2023-03-16T22:21:50.332Z,101358.30
2023-03-16T22:24:23.501Z,101360.93
2023-03-16T22:26:54.710Z,101367.38
2023-03-16T22:29:28.930Z,101374.57
2023-03-16T22:32:07.469Z,101381.89
2023-03-16T22:34:49.440Z,101384.00
2023-03-16T22:37:23.369Z,101382.05
2023-03-16T22:39:52.968Z,101377.02
2023-03-16T22:42:39.017Z,101370.16
2023-03-16T22:45:21.752Z,101361.79
2023-03-16T22:47:50.692Z,101356.54
2023-03-16T22:50:20.657Z,101343.29
2023-03-16T22:52:53.075Z,101340.73
2023-03-16T22:55:26.923Z,101334.88
2023-03-16T22:58:29.567Z,101330.18
2023-03-16T23:01:36.548Z,101326.44
2023-03-16T23:04:20.820Z,101331.18
2023-03-16T23:06:52.569Z,101334.61
2023-03-16T23:09:22.505Z,101338.88
2023-03-16T23:11:55.477Z,101345.34
2023-03-16T23:14:36.912Z,101353.71
2023-03-16T23:17:17.143Z,101354.48
2023-03-16T23:19:48.117Z,101356.05
2023-03-16T23:22:16.241Z,101365.25
2023-03-16T23:24:44.172Z,101365.30
2023-03-16T23:27:22.340Z,101365.80
2023-03-16T23:29:50.249Z,101357.27
2023-03-16T23:32:18.220Z,101352.70
2023-03-16T23:34:46.329Z,101346.70
2023-03-16T23:37:14.291Z,101333.61
2023-03-16T23:39:42.323Z,101323.05
2023-03-16T23:42:10.382Z,101339.80
2023-03-16T23:44:38.589Z,101340.73
2023-03-16T23:47:07.065Z,101338.10
2023-03-16T23:49:38.605Z,101336.48
2023-03-16T23:52:12.048Z,101337.64
2023-03-16T23:54:40.120Z,101336.52
2023-03-16T23:57:09.067Z,101335.73
2023-03-16T23:59:37.016Z,101339.95
